sensor_id;sensor_type;location;lat;lon;timestamp;temperature;humidity
39779;DHT22;25454;49.878;8.618;2023-04-15T00:01:19;7.70;99.90
39779;DHT22;25454;49.878;8.618;2023-04-15T00:06:21;7.70;99.90
39779;DHT22;25454;49.878;8.618;2023-04-15T00:11:21;7.60;99.90
39779;DHT22;25454;49.878;8.618;2023-04-15T00:16:23;7.50;99.90
39779;DHT22;25454;49.878;8.618;2023-04-15T00:21:24;7.50;99.90
39779;DHT22;25454;49.878;8.618;2023-04-15T00:26:26;7.40;99.90
39779;DHT22;25454;49.878;8.618;2023-04-15T00:31:27;7.30;99.90
39779;DHT22;25454;49.878;8.618;2023-04-15T00:36:27;7.20;99.90
39779;DHT22;25454;49.878;8.618;2023-04-15T00:41:28;7.20;99.90
39779;DHT22;25454;49.878;8.618;2023-04-15T00:46:29;7.20;99.90
39779;DHT22;25454;49.878;8.618;2023-04-15T00:51:31;7.10;99.90
39779;DHT22;25454;49.878;8.618;2023-04-15T00:56:36;7.10;99.90
39779;DHT22;25454;49.878;8.618;2023-04-15T01:01:37;7.00;99.90
39779;DHT22;25454;49.878;8.618;2023-04-15T01:06:38;7.00;99.90
39779;DHT22;25454;49.878;8.618;2023-04-15T01:11:42;6.90;99.90
39779;DHT22;25454;49.878;8.618;2023-04-15T01:16:44;6.80;99.90
39779;DHT22;25454;49.878;8.618;2023-04-15T01:21:45;6.70;99.90
39779;DHT22;25454;49.878;8.618;2023-04-15T01:26:46;6.70;99.90
39779;DHT22;25454;49.878;8.618;2023-04-15T01:31:53;6.70;99.90
39779;DHT22;25454;49.878;8.618;2023-04-15T01:36:54;6.70;99.90
39779;DHT22;25454;49.878;8.618;2023-04-15T01:41:54;6.60;99.90
39779;DHT22;25454;49.878;8.618;2023-04-15T01:46:56;6.60;99.90
39779;DHT22;25454;49.878;8.618;2023-04-15T01:51:57;6.60;99.90
39779;DHT22;25454;49.878;8.618;2023-04-15T01:56:58;6.50;99.90
39779;DHT22;25454;49.878;8.618;2023-04-15T02:01:58;6.50;99.90
39779;DHT22;25454;49.878;8.618;2023-04-15T02:06:59;6.50;99.90
39779;DHT22;25454;49.878;8.618;2023-04-15T02:12:00;6.50;99.90
39779;DHT22;25454;49.878;8.618;2023-04-15T02:17:01;6.50;99.90
39779;DHT22;25454;49.878;8.618;2023-04-15T02:22:06;6.50;99.90
39779;DHT22;25454;49.878;8.618;2023-04-15T02:27:08;6.50;99.90
39779;DHT22;25454;49.878;8.618;2023-04-15T02:32:09;6.40;99.90
39779;DHT22;25454;49.878;8.618;2023-04-15T02:37:12;6.40;99.90
39779;DHT22;25454;49.878;8.618;2023-04-15T02:42:12;6.50;99.90
39779;DHT22;25454;49.878;8.618;2023-04-15T02:47:13;6.50;99.90
39779;DHT22;25454;49.878;8.618;2023-04-15T02:52:15;6.50;99.90
39779;DHT22;25454;49.878;8.618;2023-04-15T02:57:16;6.40;99.90
39779;DHT22;25454;49.878;8.618;2023-04-15T03:02:16;6.40;99.90
39779;DHT22;25454;49.878;8.618;2023-04-15T03:07:18;6.30;99.90
39779;DHT22;25454;49.878;8.618;2023-04-15T03:12:19;6.20;99.90
39779;DHT22;25454;49.878;8.618;2023-04-15T03:17:19;6.20;99.90
39779;DHT22;25454;49.878;8.618;2023-04-15T03:22:20;6.10;99.90
39779;DHT22;25454;49.878;8.618;2023-04-15T03:27:20;6.10;99.90
39779;DHT22;25454;49.878;8.618;2023-04-15T03:32:21;6.10;99.90
39779;DHT22;25454;49.878;8.618;2023-04-15T03:37:22;6.00;99.90
39779;DHT22;25454;49.878;8.618;2023-04-15T03:42:22;6.00;99.90
39779;DHT22;25454;49.878;8.618;2023-04-15T03:47:23;6.00;99.90
39779;DHT22;25454;49.878;8.618;2023-04-15T03:52:23;5.90;99.90
39779;DHT22;25454;49.878;8.618;2023-04-15T03:57:27;5.90;99.90
39779;DHT22;25454;49.878;8.618;2023-04-15T04:02:27;5.90;99.90
39779;DHT22;25454;49.878;8.618;2023-04-15T04:07:28;5.80;99.90
39779;DHT22;25454;49.878;8.618;2023-04-15T04:12:29;5.80;99.90
39779;DHT22;25454;49.878;8.618;2023-04-15T04:17:30;5.80;99.90
39779;DHT22;25454;49.878;8.618;2023-04-15T04:22:30;5.80;99.90
39779;DHT22;25454;49.878;8.618;2023-04-15T04:27:31;5.80;99.90
39779;DHT22;25454;49.878;8.618;2023-04-15T04:32:31;5.80;99.90
39779;DHT22;25454;49.878;8.618;2023-04-15T04:37:32;5.70;99.90
39779;DHT22;25454;49.878;8.618;2023-04-15T04:42:33;5.60;99.90
39779;DHT22;25454;49.878;8.618;2023-04-15T04:47:33;5.60;99.90
39779;DHT22;25454;49.878;8.618;2023-04-15T04:52:34;5.70;99.90
39779;DHT22;25454;49.878;8.618;2023-04-15T04:57:34;5.70;99.90
39779;DHT22;25454;49.878;8.618;2023-04-15T05:02:45;5.80;99.90
39779;DHT22;25454;49.878;8.618;2023-04-15T05:07:48;5.80;99.90
39779;DHT22;25454;49.878;8.618;2023-04-15T05:12:50;5.90;99.90
39779;DHT22;25454;49.878;8.618;2023-04-15T05:17:51;5.90;99.90
39779;DHT22;25454;49.878;8.618;2023-04-15T05:22:51;6.00;99.90
39779;DHT22;25454;49.878;8.618;2023-04-15T05:27:55;6.20;99.90
39779;DHT22;25454;49.878;8.618;2023-04-15T05:32:55;6.30;99.90
39779;DHT22;25454;49.878;8.618;2023-04-15T05:37:56;6.40;99.90
39779;DHT22;25454;49.878;8.618;2023-04-15T05:42:57;6.50;99.90
39779;DHT22;25454;49.878;8.618;2023-04-15T05:47:57;6.60;99.90
39779;DHT22;25454;49.878;8.618;2023-04-15T05:52:58;6.70;99.90
39779;DHT22;25454;49.878;8.618;2023-04-15T05:57:58;6.90;99.90
39779;DHT22;25454;49.878;8.618;2023-04-15T06:02:59;7.20;99.90
39779;DHT22;25454;49.878;8.618;2023-04-15T06:08:00;7.50;99.90
39779;DHT22;25454;49.878;8.618;2023-04-15T06:13:02;7.90;99.90
39779;DHT22;25454;49.878;8.618;2023-04-15T06:18:03;8.20;99.90
39779;DHT22;25454;49.878;8.618;2023-04-15T06:23:04;8.40;99.90
39779;DHT22;25454;49.878;8.618;2023-04-15T06:28:05;8.70;99.90
39779;DHT22;25454;49.878;8.618;2023-04-15T06:33:06;8.90;99.90
39779;DHT22;25454;49.878;8.618;2023-04-15T06:38:06;9.20;99.90
39779;DHT22;25454;49.878;8.618;2023-04-15T06:43:07;9.80;99.90
39779;DHT22;25454;49.878;8.618;2023-04-15T06:48:08;10.50;99.90
39779;DHT22;25454;49.878;8.618;2023-04-15T06:53:09;11.00;99.90
39779;DHT22;25454;49.878;8.618;2023-04-15T06:58:09;11.50;99.90
39779;DHT22;25454;49.878;8.618;2023-04-15T07:03:11;12.00;99.90
39779;DHT22;25454;49.878;8.618;2023-04-15T07:08:12;12.20;99.90
39779;DHT22;25454;49.878;8.618;2023-04-15T07:13:13;12.30;99.90
39779;DHT22;25454;49.878;8.618;2023-04-15T07:18:13;12.00;99.90
39779;DHT22;25454;49.878;8.618;2023-04-15T07:23:21;12.00;99.90
39779;DHT22;25454;49.878;8.618;2023-04-15T07:28:22;12.20;99.90
39779;DHT22;25454;49.878;8.618;2023-04-15T07:33:23;12.60;99.90
39779;DHT22;25454;49.878;8.618;2023-04-15T07:38:24;13.90;99.90
39779;DHT22;25454;49.878;8.618;2023-04-15T07:43:25;16.30;99.90
39779;DHT22;25454;49.878;8.618;2023-04-15T07:48:25;17.50;98.50
39779;DHT22;25454;49.878;8.618;2023-04-15T07:53:26;18.50;91.80
39779;DHT22;25454;49.878;8.618;2023-04-15T07:58:26;18.70;90.40
39779;DHT22;25454;49.878;8.618;2023-04-15T08:03:27;19.30;84.80
39779;DHT22;25454;49.878;8.618;2023-04-15T08:08:28;20.50;76.10
39779;DHT22;25454;49.878;8.618;2023-04-15T08:13:28;19.80;76.40
39779;DHT22;25454;49.878;8.618;2023-04-15T08:18:29;19.40;76.40
39779;DHT22;25454;49.878;8.618;2023-04-15T08:23:29;20.70;72.10
39779;DHT22;25454;49.878;8.618;2023-04-15T08:28:30;21.20;70.40
39779;DHT22;25454;49.878;8.618;2023-04-15T08:33:31;20.50;70.60
39779;DHT22;25454;49.878;8.618;2023-04-15T08:38:32;19.00;75.20
39779;DHT22;25454;49.878;8.618;2023-04-15T08:43:34;18.00;77.40
39779;DHT22;25454;49.878;8.618;2023-04-15T08:48:37;17.50;78.40
39779;DHT22;25454;49.878;8.618;2023-04-15T08:53:38;17.20;79.40
39779;DHT22;25454;49.878;8.618;2023-04-15T08:58:39;17.40;78.00
39779;DHT22;25454;49.878;8.618;2023-04-15T09:03:41;16.80;79.60
39779;DHT22;25454;49.878;8.618;2023-04-15T09:08:42;16.20;82.40
39779;DHT22;25454;49.878;8.618;2023-04-15T09:13:43;16.30;82.40
39779;DHT22;25454;49.878;8.618;2023-04-15T09:18:43;16.60;81.80
39779;DHT22;25454;49.878;8.618;2023-04-15T09:23:58;17.10;79.90
39779;DHT22;25454;49.878;8.618;2023-04-15T09:29:07;17.80;75.40
39779;DHT22;25454;49.878;8.618;2023-04-15T09:34:08;17.60;74.20
39779;DHT22;25454;49.878;8.618;2023-04-15T09:39:09;18.90;72.70
39779;DHT22;25454;49.878;8.618;2023-04-15T09:44:26;19.00;67.60
39779;DHT22;25454;49.878;8.618;2023-04-15T09:55:33;18.10;68.00
39779;DHT22;25454;49.878;8.618;2023-04-15T10:00:34;17.10;69.20
39779;DHT22;25454;49.878;8.618;2023-04-15T10:05:36;16.90;71.40
39779;DHT22;25454;49.878;8.618;2023-04-15T10:10:37;17.00;71.70
39779;DHT22;25454;49.878;8.618;2023-04-15T10:15:40;16.90;72.60
39779;DHT22;25454;49.878;8.618;2023-04-15T10:20:43;16.30;73.60
39779;DHT22;25454;49.878;8.618;2023-04-15T10:25:45;15.90;75.50
39779;DHT22;25454;49.878;8.618;2023-04-15T10:30:47;15.90;74.30
39779;DHT22;25454;49.878;8.618;2023-04-15T10:35:50;15.70;76.60
39779;DHT22;25454;49.878;8.618;2023-04-15T10:46:20;16.10;76.40
39779;DHT22;25454;49.878;8.618;2023-04-15T10:51:29;15.70;75.60
39779;DHT22;25454;49.878;8.618;2023-04-15T10:56:29;15.40;77.70
39779;DHT22;25454;49.878;8.618;2023-04-15T11:01:56;15.30;79.90
39779;DHT22;25454;49.878;8.618;2023-04-15T11:07:08;15.50;77.80
39779;DHT22;25454;49.878;8.618;2023-04-15T11:12:08;15.80;76.70
39779;DHT22;25454;49.878;8.618;2023-04-15T11:17:12;15.50;77.10
39779;DHT22;25454;49.878;8.618;2023-04-15T11:22:13;15.60;78.50
39779;DHT22;25454;49.878;8.618;2023-04-15T11:27:23;15.70;78.20
39779;DHT22;25454;49.878;8.618;2023-04-15T11:32:24;15.90;76.80
39779;DHT22;25454;49.878;8.618;2023-04-15T11:37:29;16.00;77.00
39779;DHT22;25454;49.878;8.618;2023-04-15T11:42:29;16.20;76.50
39779;DHT22;25454;49.878;8.618;2023-04-15T11:47:30;16.70;74.20
39779;DHT22;25454;49.878;8.618;2023-04-15T11:52:30;16.70;73.70
39779;DHT22;25454;49.878;8.618;2023-04-15T11:57:31;16.90;73.20
39779;DHT22;25454;49.878;8.618;2023-04-15T12:02:35;17.90;70.50
39779;DHT22;25454;49.878;8.618;2023-04-15T12:07:58;17.80;72.00
39779;DHT22;25454;49.878;8.618;2023-04-15T12:12:59;17.40;66.80
39779;DHT22;25454;49.878;8.618;2023-04-15T12:18:16;16.90;66.40
39779;DHT22;25454;49.878;8.618;2023-04-15T12:23:20;16.70;68.60
39779;DHT22;25454;49.878;8.618;2023-04-15T12:28:21;16.50;70.80
39779;DHT22;25454;49.878;8.618;2023-04-15T12:33:22;16.40;74.10
39779;DHT22;25454;49.878;8.618;2023-04-15T12:38:22;16.70;73.40
39779;DHT22;25454;49.878;8.618;2023-04-15T12:43:23;16.60;74.30
39779;DHT22;25454;49.878;8.618;2023-04-15T12:48:24;15.80;87.20
39779;DHT22;25454;49.878;8.618;2023-04-15T12:53:24;15.00;91.90
39779;DHT22;25454;49.878;8.618;2023-04-15T12:58:25;14.30;94.50
39779;DHT22;25454;49.878;8.618;2023-04-15T13:03:26;14.00;97.00
39779;DHT22;25454;49.878;8.618;2023-04-15T13:08:27;14.10;98.80
39779;DHT22;25454;49.878;8.618;2023-04-15T13:13:28;14.30;99.30
39779;DHT22;25454;49.878;8.618;2023-04-15T13:18:29;14.40;99.90
39779;DHT22;25454;49.878;8.618;2023-04-15T13:23:30;14.50;99.90
39779;DHT22;25454;49.878;8.618;2023-04-15T13:28:31;14.30;99.90
39779;DHT22;25454;49.878;8.618;2023-04-15T13:33:33;14.30;99.90
39779;DHT22;25454;49.878;8.618;2023-04-15T13:38:33;13.90;99.90
39779;DHT22;25454;49.878;8.618;2023-04-15T13:43:34;13.90;99.90
39779;DHT22;25454;49.878;8.618;2023-04-15T13:48:35;14.00;99.90
39779;DHT22;25454;49.878;8.618;2023-04-15T13:53:36;13.90;99.90
39779;DHT22;25454;49.878;8.618;2023-04-15T13:58:37;14.00;99.90
39779;DHT22;25454;49.878;8.618;2023-04-15T14:03:38;14.20;99.90
39779;DHT22;25454;49.878;8.618;2023-04-15T14:08:39;14.00;99.90
39779;DHT22;25454;49.878;8.618;2023-04-15T14:13:40;13.70;99.90
39779;DHT22;25454;49.878;8.618;2023-04-15T14:18:42;13.80;99.90
39779;DHT22;25454;49.878;8.618;2023-04-15T14:23:43;14.00;99.90
39779;DHT22;25454;49.878;8.618;2023-04-15T14:28:44;14.00;99.90
39779;DHT22;25454;49.878;8.618;2023-04-15T14:33:45;13.90;99.90
39779;DHT22;25454;49.878;8.618;2023-04-15T14:38:46;13.70;99.90
39779;DHT22;25454;49.878;8.618;2023-04-15T14:43:46;13.40;99.90
39779;DHT22;25454;49.878;8.618;2023-04-15T14:48:48;13.40;99.90
39779;DHT22;25454;49.878;8.618;2023-04-15T14:53:48;13.20;99.90
39779;DHT22;25454;49.878;8.618;2023-04-15T14:58:52;12.90;99.90
39779;DHT22;25454;49.878;8.618;2023-04-15T15:03:53;12.80;99.90
39779;DHT22;25454;49.878;8.618;2023-04-15T15:08:54;12.80;99.90
39779;DHT22;25454;49.878;8.618;2023-04-15T15:13:54;12.60;99.90
39779;DHT22;25454;49.878;8.618;2023-04-15T15:18:56;12.60;99.90
39779;DHT22;25454;49.878;8.618;2023-04-15T15:23:56;12.60;99.90
39779;DHT22;25454;49.878;8.618;2023-04-15T15:28:57;12.40;99.90
39779;DHT22;25454;49.878;8.618;2023-04-15T15:33:58;12.30;99.90
39779;DHT22;25454;49.878;8.618;2023-04-15T15:38:59;12.30;99.90
39779;DHT22;25454;49.878;8.618;2023-04-15T15:43:59;12.30;99.90
39779;DHT22;25454;49.878;8.618;2023-04-15T15:49:01;12.30;99.90
39779;DHT22;25454;49.878;8.618;2023-04-15T15:54:02;12.30;99.90
39779;DHT22;25454;49.878;8.618;2023-04-15T15:59:03;12.30;99.90
39779;DHT22;25454;49.878;8.618;2023-04-15T16:04:04;12.30;99.90
39779;DHT22;25454;49.878;8.618;2023-04-15T16:09:05;12.30;99.90
39779;DHT22;25454;49.878;8.618;2023-04-15T16:14:05;12.30;99.90
39779;DHT22;25454;49.878;8.618;2023-04-15T16:19:06;12.20;99.90
39779;DHT22;25454;49.878;8.618;2023-04-15T16:24:06;12.00;99.90
39779;DHT22;25454;49.878;8.618;2023-04-15T16:29:07;12.00;99.90
39779;DHT22;25454;49.878;8.618;2023-04-15T16:34:08;11.80;99.90
39779;DHT22;25454;49.878;8.618;2023-04-15T16:39:08;11.50;99.90
39779;DHT22;25454;49.878;8.618;2023-04-15T16:44:09;11.30;99.90
39779;DHT22;25454;49.878;8.618;2023-04-15T16:49:10;11.30;99.90
39779;DHT22;25454;49.878;8.618;2023-04-15T16:54:11;11.30;99.90
39779;DHT22;25454;49.878;8.618;2023-04-15T16:59:11;11.30;99.90
39779;DHT22;25454;49.878;8.618;2023-04-15T17:04:12;11.20;99.90
39779;DHT22;25454;49.878;8.618;2023-04-15T17:09:12;11.20;99.90
39779;DHT22;25454;49.878;8.618;2023-04-15T17:14:13;11.00;99.90
39779;DHT22;25454;49.878;8.618;2023-04-15T17:19:14;11.00;99.90
39779;DHT22;25454;49.878;8.618;2023-04-15T17:24:14;10.90;99.90
39779;DHT22;25454;49.878;8.618;2023-04-15T17:29:27;10.90;99.90
39779;DHT22;25454;49.878;8.618;2023-04-15T17:34:28;10.80;99.90
39779;DHT22;25454;49.878;8.618;2023-04-15T17:39:28;10.80;99.90
39779;DHT22;25454;49.878;8.618;2023-04-15T17:44:29;10.70;99.90
39779;DHT22;25454;49.878;8.618;2023-04-15T17:49:30;10.70;99.90
39779;DHT22;25454;49.878;8.618;2023-04-15T17:54:34;10.70;99.90
39779;DHT22;25454;49.878;8.618;2023-04-15T17:59:34;10.70;99.90
39779;DHT22;25454;49.878;8.618;2023-04-15T18:04:35;10.70;99.90
39779;DHT22;25454;49.878;8.618;2023-04-15T18:09:36;10.70;99.90
39779;DHT22;25454;49.878;8.618;2023-04-15T18:14:36;10.60;99.90
39779;DHT22;25454;49.878;8.618;2023-04-15T18:19:37;10.60;99.90
39779;DHT22;25454;49.878;8.618;2023-04-15T18:24:37;10.70;99.90
39779;DHT22;25454;49.878;8.618;2023-04-15T18:29:38;10.60;99.90
39779;DHT22;25454;49.878;8.618;2023-04-15T18:34:39;10.60;99.90
39779;DHT22;25454;49.878;8.618;2023-04-15T18:39:39;10.60;99.90
39779;DHT22;25454;49.878;8.618;2023-04-15T18:44:40;10.60;99.90
39779;DHT22;25454;49.878;8.618;2023-04-15T18:49:40;10.60;99.90
39779;DHT22;25454;49.878;8.618;2023-04-15T18:54:41;10.60;99.90
39779;DHT22;25454;49.878;8.618;2023-04-15T18:59:42;10.50;99.90
39779;DHT22;25454;49.878;8.618;2023-04-15T19:04:42;10.50;99.90
39779;DHT22;25454;49.878;8.618;2023-04-15T19:09:43;10.50;99.90
39779;DHT22;25454;49.878;8.618;2023-04-15T19:14:43;10.40;99.90
39779;DHT22;25454;49.878;8.618;2023-04-15T19:19:44;10.40;99.90
39779;DHT22;25454;49.878;8.618;2023-04-15T19:24:45;10.40;99.90
39779;DHT22;25454;49.878;8.618;2023-04-15T19:29:45;10.40;99.90
39779;DHT22;25454;49.878;8.618;2023-04-15T19:34:47;10.30;99.90
39779;DHT22;25454;49.878;8.618;2023-04-15T19:39:47;10.30;99.90
39779;DHT22;25454;49.878;8.618;2023-04-15T19:44:48;10.30;99.90
39779;DHT22;25454;49.878;8.618;2023-04-15T19:49:50;10.20;99.90
39779;DHT22;25454;49.878;8.618;2023-04-15T19:54:50;10.20;99.90
39779;DHT22;25454;49.878;8.618;2023-04-15T19:59:51;10.30;99.90
39779;DHT22;25454;49.878;8.618;2023-04-15T20:04:51;10.20;99.90
39779;DHT22;25454;49.878;8.618;2023-04-15T20:09:52;10.20;99.90
39779;DHT22;25454;49.878;8.618;2023-04-15T20:14:52;10.20;99.90
39779;DHT22;25454;49.878;8.618;2023-04-15T20:19:53;10.20;99.90
39779;DHT22;25454;49.878;8.618;2023-04-15T20:24:53;10.20;99.90
39779;DHT22;25454;49.878;8.618;2023-04-15T20:29:54;10.20;99.90
39779;DHT22;25454;49.878;8.618;2023-04-15T20:34:55;10.20;99.90
39779;DHT22;25454;49.878;8.618;2023-04-15T20:39:55;10.20;99.90
39779;DHT22;25454;49.878;8.618;2023-04-15T20:44:56;10.20;99.90
39779;DHT22;25454;49.878;8.618;2023-04-15T20:49:56;10.20;99.90
39779;DHT22;25454;49.878;8.618;2023-04-15T20:54:57;10.30;99.90
39779;DHT22;25454;49.878;8.618;2023-04-15T20:59:57;10.20;99.90
39779;DHT22;25454;49.878;8.618;2023-04-15T21:04:58;10.20;99.90
39779;DHT22;25454;49.878;8.618;2023-04-15T21:09:58;10.20;99.90
39779;DHT22;25454;49.878;8.618;2023-04-15T21:14:59;10.20;99.90
39779;DHT22;25454;49.878;8.618;2023-04-15T21:20:01;10.20;99.90
39779;DHT22;25454;49.878;8.618;2023-04-15T21:25:01;10.20;99.90
39779;DHT22;25454;49.878;8.618;2023-04-15T21:30:02;10.20;99.90
39779;DHT22;25454;49.878;8.618;2023-04-15T21:35:03;10.10;99.90
39779;DHT22;25454;49.878;8.618;2023-04-15T21:40:04;10.10;99.90
39779;DHT22;25454;49.878;8.618;2023-04-15T21:45:05;10.10;99.90
39779;DHT22;25454;49.878;8.618;2023-04-15T21:50:06;10.10;99.90
39779;DHT22;25454;49.878;8.618;2023-04-15T21:55:07;10.10;99.90
39779;DHT22;25454;49.878;8.618;2023-04-15T22:00:08;10.10;99.90
39779;DHT22;25454;49.878;8.618;2023-04-15T22:05:10;10.10;99.90
39779;DHT22;25454;49.878;8.618;2023-04-15T22:10:11;10.10;99.90
39779;DHT22;25454;49.878;8.618;2023-04-15T22:15:11;10.20;99.90
39779;DHT22;25454;49.878;8.618;2023-04-15T22:20:12;10.10;99.90
39779;DHT22;25454;49.878;8.618;2023-04-15T22:25:13;10.20;99.90
39779;DHT22;25454;49.878;8.618;2023-04-15T22:30:14;10.20;99.90
39779;DHT22;25454;49.878;8.618;2023-04-15T22:35:17;10.10;99.90
39779;DHT22;25454;49.878;8.618;2023-04-15T22:40:18;10.10;99.90
39779;DHT22;25454;49.878;8.618;2023-04-15T22:45:18;10.10;99.90
39779;DHT22;25454;49.878;8.618;2023-04-15T22:50:19;10.00;99.90
39779;DHT22;25454;49.878;8.618;2023-04-15T22:55:20;10.00;99.90
39779;DHT22;25454;49.878;8.618;2023-04-15T23:00:21;10.00;99.90
39779;DHT22;25454;49.878;8.618;2023-04-15T23:05:22;10.00;99.90
39779;DHT22;25454;49.878;8.618;2023-04-15T23:10:23;10.00;99.90
39779;DHT22;25454;49.878;8.618;2023-04-15T23:15:24;10.00;99.90
39779;DHT22;25454;49.878;8.618;2023-04-15T23:20:24;10.00;99.90
39779;DHT22;25454;49.878;8.618;2023-04-15T23:25:25;10.00;99.90
39779;DHT22;25454;49.878;8.618;2023-04-15T23:30:26;9.90;99.90
39779;DHT22;25454;49.878;8.618;2023-04-15T23:35:29;9.80;99.90
39779;DHT22;25454;49.878;8.618;2023-04-15T23:40:30;9.80;99.90
39779;DHT22;25454;49.878;8.618;2023-04-15T23:45:31;9.80;99.90
39779;DHT22;25454;49.878;8.618;2023-04-15T23:50:34;9.80;99.90
39779;DHT22;25454;49.878;8.618;2023-04-15T23:55:34;9.80;99.90
